createdAt,value
2018-12-12T00:00:00.774Z,5.43
2018-12-12T00:02:28.208Z,5.60
2018-12-12T00:04:55.602Z,6.40
2018-12-12T00:07:23.255Z,6.53
2018-12-12T00:09:50.729Z,6.83
2018-12-12T00:12:18.107Z,6.53
2018-12-12T00:14:45.432Z,6.50
2018-12-12T00:17:12.835Z,6.10
2018-12-12T00:19:40.207Z,6.10
2018-12-12T00:22:07.578Z,5.50
2018-12-12T00:24:34.900Z,4.93
2018-12-12T00:27:02.308Z,6.77
2018-12-12T00:29:29.630Z,6.17
2018-12-12T00:31:56.982Z,7.63
2018-12-12T00:34:24.336Z,7.80
2018-12-12T00:36:51.713Z,5.97
2018-12-12T00:39:19.085Z,7.00
2018-12-12T00:41:46.465Z,8.17
2018-12-12T00:44:13.835Z,8.03
2018-12-12T00:46:41.507Z,8.20
2018-12-12T00:49:08.945Z,7.47
2018-12-12T00:51:36.531Z,7.50
2018-12-12T00:54:03.914Z,7.40
2018-12-12T00:56:31.212Z,6.47
2018-12-12T00:58:58.553Z,5.97
2018-12-12T01:01:25.948Z,6.90
2018-12-12T01:03:53.385Z,7.40
2018-12-12T01:06:20.722Z,6.97
2018-12-12T01:08:48.073Z,6.83
2018-12-12T01:11:20.889Z,5.03
2018-12-12T01:13:48.284Z,5.53
2018-12-12T01:16:15.707Z,5.50
2018-12-12T01:18:43.179Z,6.00
2018-12-12T01:21:10.526Z,4.77
2018-12-12T01:23:37.913Z,4.70
2018-12-12T01:26:05.268Z,5.47
2018-12-12T01:28:32.645Z,5.27
2018-12-12T01:30:59.982Z,5.37
2018-12-12T01:33:27.360Z,5.03
2018-12-12T01:35:54.705Z,6.23
2018-12-12T01:38:22.075Z,6.10
2018-12-12T01:40:49.466Z,5.50
2018-12-12T01:43:16.843Z,5.60
2018-12-12T01:45:44.221Z,4.87
2018-12-12T01:48:11.525Z,4.47
2018-12-12T01:50:38.888Z,5.17
2018-12-12T01:53:07.628Z,4.07
2018-12-12T01:55:35.056Z,5.60
2018-12-12T01:58:02.420Z,5.97
2018-12-12T02:00:29.795Z,4.47
2018-12-12T02:02:57.174Z,4.60
2018-12-12T02:05:24.581Z,4.80
2018-12-12T02:07:52.233Z,5.63
2018-12-12T02:10:19.640Z,4.73
2018-12-12T02:12:57.028Z,5.20
2018-12-12T02:15:24.364Z,5.30
2018-12-12T02:17:51.772Z,5.30
2018-12-12T02:20:19.162Z,5.00
2018-12-12T02:22:46.510Z,4.60
2018-12-12T02:25:13.874Z,5.03
2018-12-12T02:27:41.279Z,5.90
2018-12-12T02:30:08.617Z,6.00
2018-12-12T02:32:36.029Z,5.93
2018-12-12T02:35:03.569Z,5.80
2018-12-12T02:37:30.995Z,5.40
2018-12-12T02:42:36.730Z,4.67
2018-12-12T02:45:04.196Z,5.47
2018-12-12T02:47:31.614Z,6.40
2018-12-12T02:49:58.970Z,5.70
2018-12-12T02:52:26.360Z,6.07
2018-12-12T02:54:53.730Z,6.17
2018-12-12T02:57:21.111Z,5.20
2018-12-12T02:59:48.488Z,4.47
2018-12-12T03:02:15.828Z,4.67
2018-12-12T03:04:43.324Z,3.83
2018-12-12T03:07:10.699Z,4.33
2018-12-12T03:09:38.080Z,4.30
2018-12-12T03:12:05.432Z,4.47
2018-12-12T03:14:32.785Z,4.13
2018-12-12T03:17:00.153Z,4.40
2018-12-12T03:19:27.515Z,5.53
2018-12-12T03:21:54.868Z,4.93
2018-12-12T03:24:22.203Z,5.40
2018-12-12T03:26:49.596Z,5.43
2018-12-12T03:29:17.081Z,4.57
2018-12-12T03:31:44.452Z,5.10
2018-12-12T03:34:11.746Z,4.60
2018-12-12T03:36:39.100Z,5.43
2018-12-12T03:39:07.200Z,5.03
2018-12-12T03:41:34.582Z,6.20
2018-12-12T03:44:01.965Z,5.37
2018-12-12T03:46:29.425Z,6.27
2018-12-12T03:48:56.766Z,6.40
2018-12-12T03:51:24.138Z,6.70
2018-12-12T03:53:51.462Z,6.20
2018-12-12T03:56:18.861Z,6.97
2018-12-12T03:58:46.230Z,6.80
2018-12-12T04:01:13.703Z,6.40
2018-12-12T04:03:48.956Z,6.90
2018-12-12T04:06:16.772Z,6.13
2018-12-12T04:08:44.173Z,7.10
2018-12-12T04:11:11.514Z,6.73
2018-12-12T04:13:38.914Z,6.30
2018-12-12T04:16:06.296Z,6.00
2018-12-12T04:18:33.655Z,6.00
2018-12-12T04:21:00.972Z,5.57
2018-12-12T04:23:28.379Z,5.70
2018-12-12T04:25:55.828Z,6.03
2018-12-12T04:28:23.199Z,5.97
2018-12-12T04:30:50.561Z,6.77
2018-12-12T04:33:17.938Z,5.53
2018-12-12T04:35:45.270Z,6.60
2018-12-12T04:38:12.695Z,7.17
2018-12-12T04:40:40.044Z,7.23
2018-12-12T04:43:07.486Z,7.90
2018-12-12T04:45:34.832Z,8.77
2018-12-12T04:48:02.178Z,8.03
2018-12-12T04:50:29.568Z,7.17
2018-12-12T04:52:56.915Z,6.73
2018-12-12T04:55:24.290Z,8.60
2018-12-12T04:57:51.750Z,6.93
2018-12-12T05:00:19.221Z,7.50
2018-12-12T05:02:47.261Z,7.97
2018-12-12T05:05:14.646Z,7.40
2018-12-12T05:07:42.025Z,7.63
2018-12-12T05:10:09.432Z,7.80
2018-12-12T05:12:36.924Z,9.47
2018-12-12T05:15:04.866Z,7.83
2018-12-12T05:17:32.220Z,8.17
2018-12-12T05:19:59.629Z,7.93
2018-12-12T05:22:26.974Z,7.33
2018-12-12T05:24:54.381Z,8.77
2018-12-12T05:27:21.780Z,7.43
2018-12-12T05:29:49.155Z,7.30
2018-12-12T05:32:16.518Z,7.17
2018-12-12T05:34:43.858Z,9.15
2018-12-12T05:37:11.264Z,7.00
2018-12-12T05:39:38.609Z,7.13
2018-12-12T05:42:06.025Z,7.60
2018-12-12T05:44:33.409Z,7.80
2018-12-12T05:47:00.826Z,8.53
2018-12-12T05:49:28.194Z,8.47
2018-12-12T05:51:55.599Z,9.20
2018-12-12T05:54:23.010Z,7.93
2018-12-12T05:56:52.491Z,8.27
2018-12-12T05:59:19.792Z,8.10
2018-12-12T06:01:47.154Z,9.33
2018-12-12T06:04:14.537Z,9.43
2018-12-12T06:06:41.891Z,9.93
2018-12-12T06:09:09.288Z,10.30
2018-12-12T06:11:36.677Z,8.80
2018-12-12T06:14:04.076Z,9.07
2018-12-12T06:16:31.495Z,8.40
2018-12-12T06:18:58.922Z,9.20
2018-12-12T06:21:26.336Z,9.40
2018-12-12T06:23:53.729Z,12.77
2018-12-12T06:26:21.099Z,12.23
2018-12-12T06:28:48.500Z,12.00
2018-12-12T06:31:15.874Z,11.70
2018-12-12T06:33:43.891Z,13.93
2018-12-12T06:36:11.271Z,13.43
2018-12-12T06:38:38.688Z,18.13
2018-12-12T06:41:06.016Z,13.47
2018-12-12T06:43:33.466Z,11.50
2018-12-12T06:46:00.809Z,10.10
2018-12-12T06:48:28.216Z,8.70
2018-12-12T06:50:55.586Z,8.87
2018-12-12T06:53:22.956Z,7.70
2018-12-12T06:55:50.376Z,8.53
2018-12-12T06:58:17.775Z,7.50
2018-12-12T07:00:45.149Z,8.67
2018-12-12T07:03:12.599Z,10.57
2018-12-12T07:05:40.004Z,12.77
2018-12-12T07:08:07.366Z,24.53
2018-12-12T07:10:34.736Z,19.67
2018-12-12T07:13:02.073Z,13.67
2018-12-12T07:15:29.476Z,12.63
2018-12-12T07:17:56.852Z,19.00
2018-12-12T07:20:24.240Z,124.77
2018-12-12T07:22:51.599Z,144.90
2018-12-12T07:25:19.009Z,68.73
2018-12-12T07:27:46.362Z,67.13
2018-12-12T07:30:13.735Z,70.17
2018-12-12T07:32:41.261Z,84.80
2018-12-12T07:35:08.670Z,33.23
2018-12-12T07:37:36.078Z,51.90
2018-12-12T07:40:03.765Z,51.27
2018-12-12T07:42:31.186Z,30.73
2018-12-12T07:44:58.610Z,22.57
2018-12-12T07:47:25.997Z,15.47
2018-12-12T07:49:53.398Z,13.00
2018-12-12T07:52:20.802Z,13.27
2018-12-12T07:54:48.180Z,14.13
2018-12-12T07:57:15.556Z,11.93
2018-12-12T07:59:42.972Z,10.27
2018-12-12T08:02:10.331Z,10.47
2018-12-12T08:04:37.642Z,9.50
2018-12-12T08:07:05.088Z,9.20
2018-12-12T08:09:32.479Z,9.73
2018-12-12T08:11:59.884Z,11.53
2018-12-12T08:14:27.285Z,11.50
2018-12-12T08:16:54.655Z,11.73
2018-12-12T08:19:21.989Z,12.73
2018-12-12T08:21:49.395Z,14.40
2018-12-12T08:24:16.785Z,15.30
2018-12-12T08:26:44.236Z,15.13
2018-12-12T08:29:11.743Z,11.90
2018-12-12T08:31:39.156Z,13.27
2018-12-12T08:34:06.576Z,16.80
2018-12-12T08:36:33.942Z,18.47
2018-12-12T08:39:01.349Z,18.97
2018-12-12T08:41:28.731Z,19.87
2018-12-12T08:43:56.182Z,28.57
2018-12-12T08:46:23.561Z,19.07
2018-12-12T08:48:51.029Z,19.97
2018-12-12T08:51:18.447Z,16.80
2018-12-12T08:53:45.839Z,16.90
2018-12-12T08:56:13.224Z,18.70
2018-12-12T08:58:40.623Z,15.63
2018-12-12T09:01:07.994Z,26.43
2018-12-12T09:03:35.400Z,24.30
2018-12-12T09:06:02.741Z,17.53
2018-12-12T09:08:30.166Z,13.63
2018-12-12T09:10:57.522Z,12.27
2018-12-12T09:13:24.902Z,26.48
2018-12-12T09:15:52.318Z,31.83
2018-12-12T09:18:19.726Z,35.33
2018-12-12T09:20:47.114Z,18.17
2018-12-12T09:23:14.480Z,21.97
2018-12-12T09:25:41.940Z,19.87
2018-12-12T09:28:09.316Z,18.27
2018-12-12T09:30:36.721Z,23.27
2018-12-12T09:33:04.062Z,19.57
2018-12-12T09:35:31.553Z,13.00
2018-12-12T09:37:58.945Z,13.67
2018-12-12T09:40:26.344Z,12.20
2018-12-12T09:42:53.814Z,12.23
2018-12-12T09:45:21.813Z,16.13
2018-12-12T09:47:49.545Z,15.87
2018-12-12T09:50:17.153Z,14.97
2018-12-12T09:52:44.565Z,24.73
2018-12-12T09:55:11.940Z,13.83
2018-12-12T09:57:39.338Z,11.67
2018-12-12T10:00:06.791Z,10.90
2018-12-12T10:02:34.200Z,12.03
2018-12-12T10:05:01.639Z,11.43
2018-12-12T10:07:29.088Z,12.93
2018-12-12T10:09:56.548Z,12.00
2018-12-12T10:12:23.990Z,11.87
2018-12-12T10:14:51.420Z,12.30
2018-12-12T10:17:18.806Z,12.27
2018-12-12T10:19:46.196Z,12.77
2018-12-12T10:22:13.569Z,13.47
2018-12-12T10:24:40.976Z,12.23
2018-12-12T10:27:08.376Z,13.13
2018-12-12T10:29:35.827Z,11.27
2018-12-12T10:32:03.259Z,9.77
2018-12-12T10:34:30.630Z,10.87
2018-12-12T10:36:58.046Z,10.30
2018-12-12T10:39:25.452Z,10.53
2018-12-12T10:41:52.828Z,10.40
2018-12-12T10:44:20.227Z,10.13
2018-12-12T10:46:47.603Z,10.87
2018-12-12T10:49:15.046Z,11.30
2018-12-12T10:51:42.447Z,10.50
2018-12-12T10:54:09.881Z,9.70
2018-12-12T10:56:37.292Z,9.10
2018-12-12T10:59:04.751Z,9.93
2018-12-12T11:01:37.810Z,8.57
2018-12-12T11:04:05.286Z,8.97
2018-12-12T11:06:32.698Z,9.43
2018-12-12T11:09:00.054Z,11.20
2018-12-12T11:11:27.475Z,9.57
2018-12-12T11:13:54.861Z,7.00
2018-12-12T11:16:22.263Z,8.30
2018-12-12T11:18:49.651Z,9.20
2018-12-12T11:21:17.162Z,10.73
2018-12-12T11:23:44.592Z,12.03
2018-12-12T11:26:12.042Z,11.23
2018-12-12T11:28:39.448Z,11.93
2018-12-12T11:31:06.900Z,13.07
2018-12-12T11:33:34.311Z,13.87
2018-12-12T11:36:01.731Z,23.30
2018-12-12T11:38:29.086Z,33.30
2018-12-12T11:40:56.517Z,16.70
2018-12-12T11:43:23.911Z,17.00
2018-12-12T11:45:51.325Z,16.87
2018-12-12T11:48:18.750Z,15.47
2018-12-12T11:50:46.107Z,15.67
2018-12-12T11:53:13.540Z,14.17
2018-12-12T11:55:40.903Z,14.57
2018-12-12T11:58:08.271Z,15.37
2018-12-12T12:00:35.656Z,14.10
2018-12-12T12:03:03.079Z,14.30
2018-12-12T12:05:30.565Z,13.90
2018-12-12T12:07:57.989Z,13.20
2018-12-12T12:10:25.352Z,12.97
2018-12-12T12:12:52.757Z,13.17
2018-12-12T12:15:20.130Z,12.60
2018-12-12T12:17:47.496Z,14.83
2018-12-12T12:20:14.921Z,14.00
2018-12-12T12:22:42.372Z,18.13
2018-12-12T12:25:09.787Z,16.70
2018-12-12T12:27:37.132Z,16.83
2018-12-12T12:30:05.315Z,23.70
2018-12-12T12:32:32.716Z,16.17
2018-12-12T12:35:00.234Z,13.73
2018-12-12T12:37:27.717Z,11.60
2018-12-12T12:39:55.087Z,11.60
2018-12-12T12:42:22.521Z,12.80
2018-12-12T12:44:49.950Z,12.77
2018-12-12T12:47:17.341Z,17.47
2018-12-12T12:49:44.806Z,18.55
2018-12-12T12:52:12.168Z,13.27
2018-12-12T12:54:39.567Z,13.67
2018-12-12T12:57:06.957Z,12.57
2018-12-12T12:59:34.412Z,15.37
2018-12-12T13:02:01.822Z,12.63
2018-12-12T13:04:29.218Z,10.77
2018-12-12T13:06:56.632Z,11.77
2018-12-12T13:09:23.988Z,14.17
2018-12-12T13:11:51.428Z,11.93
2018-12-12T13:14:18.856Z,10.47
2018-12-12T13:16:46.250Z,11.37
2018-12-12T13:19:13.631Z,9.63
2018-12-12T13:21:41.025Z,9.77
2018-12-12T13:24:08.426Z,14.63
2018-12-12T13:26:35.861Z,15.20
2018-12-12T13:29:03.227Z,10.87
2018-12-12T13:31:30.667Z,11.83
2018-12-12T13:33:58.046Z,10.20
2018-12-12T13:36:25.482Z,10.73
2018-12-12T13:38:52.828Z,11.10
2018-12-12T13:41:20.225Z,10.13
2018-12-12T13:43:47.703Z,10.13
2018-12-12T13:46:15.108Z,10.87
2018-12-12T13:48:42.534Z,10.03
2018-12-12T13:51:09.919Z,11.10
2018-12-12T13:53:37.364Z,11.57
2018-12-12T13:56:04.722Z,11.93
2018-12-12T13:58:32.204Z,12.60
2018-12-12T14:00:59.567Z,12.10
2018-12-12T14:03:26.995Z,13.30
2018-12-12T14:05:54.383Z,18.63
2018-12-12T14:08:21.822Z,16.07
2018-12-12T14:10:49.227Z,14.20
2018-12-12T14:13:16.605Z,15.87
2018-12-12T14:15:44.022Z,15.37
2018-12-12T14:18:11.424Z,17.33
2018-12-12T14:20:38.863Z,16.60
2018-12-12T14:23:06.432Z,17.67
2018-12-12T14:25:33.792Z,16.10
2018-12-12T14:28:01.167Z,15.50
2018-12-12T14:30:28.592Z,16.77
2018-12-12T14:32:55.997Z,16.97
2018-12-12T14:35:23.439Z,17.77
2018-12-12T14:37:50.798Z,15.00
2018-12-12T14:40:18.211Z,17.43
2018-12-12T14:42:45.633Z,15.23
2018-12-12T14:45:13.047Z,14.07
2018-12-12T14:47:40.427Z,14.87
2018-12-12T14:50:08.006Z,16.43
2018-12-12T14:52:35.385Z,14.53
2018-12-12T14:55:02.789Z,13.50
2018-12-12T14:57:30.230Z,14.87
2018-12-12T14:59:57.657Z,16.03
2018-12-12T15:02:25.088Z,22.20
2018-12-12T15:04:52.563Z,25.83
2018-12-12T15:07:20.023Z,26.57
2018-12-12T15:09:47.402Z,20.97
2018-12-12T15:12:14.832Z,18.73
2018-12-12T15:14:42.367Z,21.53
2018-12-12T15:17:09.852Z,21.57
2018-12-12T15:19:37.227Z,18.83
2018-12-12T15:22:04.907Z,17.40
2018-12-12T15:24:32.295Z,17.80
2018-12-12T15:26:59.707Z,18.80
2018-12-12T15:29:27.087Z,17.57
2018-12-12T15:31:54.617Z,16.83
2018-12-12T15:34:22.044Z,16.13
2018-12-12T15:36:49.414Z,17.93
2018-12-12T15:39:16.851Z,16.30
2018-12-12T15:41:44.274Z,17.13
2018-12-12T15:44:11.714Z,19.17
2018-12-12T15:46:39.092Z,18.13
2018-12-12T15:49:06.492Z,22.60
2018-12-12T15:51:33.987Z,23.63
2018-12-12T15:54:01.391Z,24.83
2018-12-12T15:56:28.745Z,21.17
2018-12-12T15:58:56.214Z,19.67
2018-12-12T16:01:23.577Z,21.97
2018-12-12T16:03:50.966Z,21.37
2018-12-12T16:06:18.357Z,22.00
2018-12-12T16:08:45.778Z,18.57
2018-12-12T16:11:13.194Z,19.37
2018-12-12T16:13:40.629Z,21.37
2018-12-12T16:16:08.032Z,22.17
2018-12-12T16:18:35.504Z,23.17
2018-12-12T16:21:03.050Z,20.47
2018-12-12T16:23:30.408Z,21.60
2018-12-12T16:25:57.851Z,20.83
2018-12-12T16:28:25.263Z,21.40
2018-12-12T16:30:52.730Z,19.73
2018-12-12T16:33:20.136Z,20.30
2018-12-12T16:35:47.594Z,19.80
2018-12-12T16:38:14.977Z,20.03
2018-12-12T16:40:42.385Z,19.87
2018-12-12T16:43:09.824Z,21.10
2018-12-12T16:45:37.280Z,20.97
2018-12-12T16:48:04.784Z,20.93
2018-12-12T16:50:32.209Z,22.30
2018-12-12T16:52:59.642Z,30.32
2018-12-12T16:55:27.035Z,24.20
2018-12-12T16:57:54.417Z,23.03
2018-12-12T17:00:21.856Z,24.63
2018-12-12T17:02:49.292Z,28.07
2018-12-12T17:05:16.748Z,28.53
2018-12-12T17:07:44.160Z,26.93
2018-12-12T17:10:11.539Z,24.13
2018-12-12T17:12:41.082Z,23.27
2018-12-12T17:15:08.637Z,26.00
2018-12-12T17:17:36.105Z,33.97
2018-12-12T17:20:04.285Z,35.73
2018-12-12T17:22:31.772Z,29.27
2018-12-12T17:24:59.188Z,23.67
2018-12-12T17:27:26.636Z,30.37
2018-12-12T17:29:54.053Z,27.70
2018-12-12T17:32:21.443Z,24.13
2018-12-12T17:34:48.850Z,26.77
2018-12-12T17:37:16.300Z,24.47
2018-12-12T17:42:22.604Z,25.83
2018-12-12T17:44:50.005Z,21.57
2018-12-12T17:47:17.523Z,21.83
2018-12-12T17:49:44.948Z,22.90
2018-12-12T17:52:12.314Z,26.33
2018-12-12T17:54:39.743Z,24.27
2018-12-12T17:57:07.084Z,25.37
2018-12-12T17:59:34.498Z,28.20
2018-12-12T18:02:02.055Z,43.73
2018-12-12T18:04:29.844Z,44.23
2018-12-12T18:06:57.225Z,31.87
2018-12-12T18:09:24.704Z,26.37
2018-12-12T18:11:52.137Z,24.77
2018-12-12T18:14:20.548Z,23.57
2018-12-12T18:16:47.953Z,26.50
2018-12-12T18:19:15.359Z,27.90
2018-12-12T18:21:42.733Z,25.37
2018-12-12T18:24:10.149Z,25.30
2018-12-12T18:26:37.620Z,25.63
2018-12-12T18:29:05.014Z,24.00
2018-12-12T18:31:32.507Z,22.03
2018-12-12T18:33:59.859Z,19.93
2018-12-12T18:36:27.289Z,18.90
2018-12-12T18:38:54.684Z,27.00
2018-12-12T18:41:22.095Z,30.17
2018-12-12T18:43:49.497Z,20.37
2018-12-12T18:46:16.904Z,15.03
2018-12-12T18:48:44.355Z,13.17
2018-12-12T18:51:11.824Z,12.67
2018-12-12T18:53:39.223Z,12.70
2018-12-12T18:56:06.647Z,13.23
2018-12-12T18:58:34.080Z,12.67
2018-12-12T19:01:01.473Z,12.57
2018-12-12T19:03:28.939Z,12.57
2018-12-12T19:05:56.349Z,12.47
2018-12-12T19:08:23.827Z,13.13
2018-12-12T19:10:51.245Z,12.90
2018-12-12T19:13:18.645Z,11.60
2018-12-12T19:15:46.023Z,13.13
2018-12-12T19:18:13.476Z,13.23
2018-12-12T19:20:40.896Z,11.80
2018-12-12T19:23:08.345Z,11.57
2018-12-12T19:25:35.735Z,9.63
2018-12-12T19:28:03.223Z,9.73
2018-12-12T19:30:30.665Z,8.27
2018-12-12T19:32:58.069Z,9.63
2018-12-12T19:35:25.510Z,7.83
2018-12-12T19:37:52.976Z,7.03
2018-12-12T19:40:20.378Z,6.53
2018-12-12T19:42:47.774Z,6.57
2018-12-12T19:45:15.256Z,5.63
2018-12-12T19:47:42.679Z,6.37
2018-12-12T19:50:10.297Z,5.37
2018-12-12T19:52:37.714Z,5.13
2018-12-12T19:55:05.268Z,4.93
2018-12-12T19:57:32.675Z,5.20
2018-12-12T20:00:00.130Z,5.57
2018-12-12T20:02:27.542Z,4.80
2018-12-12T20:04:55.034Z,4.07
2018-12-12T20:07:22.450Z,4.10
2018-12-12T20:09:49.901Z,5.23
2018-12-12T20:12:17.284Z,8.13
2018-12-12T20:14:44.715Z,6.40
2018-12-12T20:17:12.104Z,4.60
2018-12-12T20:19:39.541Z,5.53
2018-12-12T20:22:06.957Z,5.53
2018-12-12T20:24:34.349Z,5.03
2018-12-12T20:27:01.733Z,5.47
2018-12-12T20:29:29.127Z,5.37
2018-12-12T20:31:57.551Z,5.00
2018-12-12T20:34:24.996Z,4.20
2018-12-12T20:36:52.816Z,5.80
2018-12-12T20:39:20.224Z,4.00
2018-12-12T20:41:47.690Z,4.53
2018-12-12T20:44:16.555Z,4.53
2018-12-12T20:46:44.129Z,4.63
2018-12-12T20:49:11.506Z,4.60
2018-12-12T20:51:43.890Z,4.50
2018-12-12T20:54:15.335Z,5.00
2018-12-12T20:56:46.994Z,4.07
2018-12-12T20:59:19.095Z,4.83
2018-12-12T21:01:46.695Z,4.77
2018-12-12T21:04:14.145Z,5.30
2018-12-12T21:06:41.599Z,4.73
2018-12-12T21:09:09.054Z,5.13
2018-12-12T21:11:36.464Z,5.60
2018-12-12T21:14:03.920Z,5.00
2018-12-12T21:16:31.363Z,5.43
2018-12-12T21:18:58.828Z,6.37
2018-12-12T21:21:26.250Z,6.10
2018-12-12T21:23:53.674Z,5.87
2018-12-12T21:26:21.395Z,5.90
2018-12-12T21:28:48.819Z,6.03
2018-12-12T21:31:16.246Z,5.80
2018-12-12T21:33:43.669Z,6.07
2018-12-12T21:36:11.038Z,6.07
2018-12-12T21:38:38.597Z,5.53
2018-12-12T21:41:05.992Z,6.27
2018-12-12T21:43:33.426Z,6.00
2018-12-12T21:46:01.376Z,6.27
2018-12-12T21:48:28.877Z,6.50
2018-12-12T21:50:56.301Z,5.23
2018-12-12T21:53:23.735Z,5.17
2018-12-12T21:58:29.119Z,6.00
2018-12-12T22:00:56.540Z,6.00
2018-12-12T22:03:23.941Z,5.53
2018-12-12T22:05:51.351Z,5.87
2018-12-12T22:08:18.754Z,6.03
2018-12-12T22:10:46.156Z,5.77
2018-12-12T22:13:13.599Z,5.90
2018-12-12T22:15:41.003Z,5.83
2018-12-12T22:18:08.359Z,5.93
2018-12-12T22:20:35.745Z,6.73
2018-12-12T22:23:03.130Z,6.83
2018-12-12T22:25:30.479Z,6.23
2018-12-12T22:27:57.854Z,7.07
2018-12-12T22:30:25.258Z,7.53
2018-12-12T22:32:52.690Z,6.77
2018-12-12T22:35:20.091Z,6.87
2018-12-12T22:37:47.443Z,7.23
2018-12-12T22:40:14.798Z,7.07
2018-12-12T22:42:42.260Z,6.60
2018-12-12T22:45:09.945Z,6.70
2018-12-12T22:47:37.319Z,6.67
2018-12-12T22:50:05.116Z,6.73
2018-12-12T22:52:32.524Z,7.60
2018-12-12T22:54:59.901Z,8.03
2018-12-12T22:57:27.378Z,7.63
2018-12-12T22:59:54.844Z,7.87
2018-12-12T23:02:22.500Z,7.00
2018-12-12T23:04:50.220Z,7.67
2018-12-12T23:07:18.240Z,7.33
2018-12-12T23:09:45.570Z,7.47
2018-12-12T23:12:12.964Z,8.00
2018-12-12T23:14:40.903Z,8.27
2018-12-12T23:17:08.303Z,7.00
2018-12-12T23:19:35.793Z,7.77
2018-12-12T23:22:03.244Z,9.37
2018-12-12T23:24:31.049Z,8.37
2018-12-12T23:26:58.424Z,7.93
2018-12-12T23:29:25.908Z,8.07
2018-12-12T23:31:53.257Z,7.23
2018-12-12T23:34:20.686Z,8.30
2018-12-12T23:36:48.029Z,7.60
2018-12-12T23:39:15.419Z,7.93
2018-12-12T23:41:42.732Z,6.83
2018-12-12T23:44:10.094Z,7.97
2018-12-12T23:46:37.455Z,7.57
2018-12-12T23:49:04.829Z,7.93
2018-12-12T23:51:32.185Z,8.87
2018-12-12T23:53:59.543Z,8.33
2018-12-12T23:56:28.273Z,7.97
2018-12-12T23:58:55.654Z,7.43
